sensor_id;sensor_type;location;lat;lon;timestamp;temperature;humidity
8099;DHT22;4092;47.876;9.372;2022-11-03T00:00:34;6.00;99.90
8099;DHT22;4092;47.876;9.372;2022-11-03T00:03:01;5.90;99.90
8099;DHT22;4092;47.876;9.372;2022-11-03T00:05:28;5.90;99.90
8099;DHT22;4092;47.876;9.372;2022-11-03T00:08:12;5.90;99.90
8099;DHT22;4092;47.876;9.372;2022-11-03T00:10:39;5.90;99.90
8099;DHT22;4092;47.876;9.372;2022-11-03T00:13:06;6.00;99.90
8099;DHT22;4092;47.876;9.372;2022-11-03T00:15:35;5.90;99.90
8099;DHT22;4092;47.876;9.372;2022-11-03T00:18:02;5.90;99.90
8099;DHT22;4092;47.876;9.372;2022-11-03T00:20:29;5.90;99.90
8099;DHT22;4092;47.876;9.372;2022-11-03T00:22:56;5.90;99.90
8099;DHT22;4092;47.876;9.372;2022-11-03T00:25:23;6.00;99.90
8099;DHT22;4092;47.876;9.372;2022-11-03T00:27:53;6.00;99.90
8099;DHT22;4092;47.876;9.372;2022-11-03T00:30:21;5.90;99.90
8099;DHT22;4092;47.876;9.372;2022-11-03T00:32:50;5.90;99.90
8099;DHT22;4092;47.876;9.372;2022-11-03T00:35:17;5.90;99.90
8099;DHT22;4092;47.876;9.372;2022-11-03T00:37:44;5.90;99.90
8099;DHT22;4092;47.876;9.372;2022-11-03T00:40:11;5.80;99.90
8099;DHT22;4092;47.876;9.372;2022-11-03T00:42:38;5.80;99.90
8099;DHT22;4092;47.876;9.372;2022-11-03T00:45:06;5.80;99.90
8099;DHT22;4092;47.876;9.372;2022-11-03T00:47:34;5.70;99.90
8099;DHT22;4092;47.876;9.372;2022-11-03T00:50:22;5.70;99.90
8099;DHT22;4092;47.876;9.372;2022-11-03T00:52:49;5.70;99.90
8099;DHT22;4092;47.876;9.372;2022-11-03T00:55:16;5.70;99.90
8099;DHT22;4092;47.876;9.372;2022-11-03T00:57:43;5.60;99.90
8099;DHT22;4092;47.876;9.372;2022-11-03T01:00:11;5.50;99.90
8099;DHT22;4092;47.876;9.372;2022-11-03T01:02:38;5.50;99.90
8099;DHT22;4092;47.876;9.372;2022-11-03T01:05:07;5.50;99.90
8099;DHT22;4092;47.876;9.372;2022-11-03T01:07:53;5.50;99.90
8099;DHT22;4092;47.876;9.372;2022-11-03T01:10:20;5.40;99.90
8099;DHT22;4092;47.876;9.372;2022-11-03T01:12:47;5.30;99.90
8099;DHT22;4092;47.876;9.372;2022-11-03T01:15:14;5.40;99.90
8099;DHT22;4092;47.876;9.372;2022-11-03T01:17:41;5.40;99.90
8099;DHT22;4092;47.876;9.372;2022-11-03T01:20:09;5.40;99.90
8099;DHT22;4092;47.876;9.372;2022-11-03T01:22:36;5.40;99.90
8099;DHT22;4092;47.876;9.372;2022-11-03T01:25:05;5.40;99.90
8099;DHT22;4092;47.876;9.372;2022-11-03T01:27:33;5.40;99.90
8099;DHT22;4092;47.876;9.372;2022-11-03T01:30:00;5.40;99.90
8099;DHT22;4092;47.876;9.372;2022-11-03T01:32:27;5.40;99.90
8099;DHT22;4092;47.876;9.372;2022-11-03T01:34:54;5.40;99.90
8099;DHT22;4092;47.876;9.372;2022-11-03T01:37:23;5.30;99.90
8099;DHT22;4092;47.876;9.372;2022-11-03T01:39:50;5.30;99.90
8099;DHT22;4092;47.876;9.372;2022-11-03T01:42:19;5.30;99.90
8099;DHT22;4092;47.876;9.372;2022-11-03T01:44:47;5.20;99.90
8099;DHT22;4092;47.876;9.372;2022-11-03T01:47:20;5.20;99.90
8099;DHT22;4092;47.876;9.372;2022-11-03T01:49:51;5.20;99.90
8099;DHT22;4092;47.876;9.372;2022-11-03T01:52:23;5.30;99.90
8099;DHT22;4092;47.876;9.372;2022-11-03T01:54:56;5.20;99.90
8099;DHT22;4092;47.876;9.372;2022-11-03T01:57:28;5.10;99.90
8099;DHT22;4092;47.876;9.372;2022-11-03T01:59:58;5.10;99.90
8099;DHT22;4092;47.876;9.372;2022-11-03T02:02:26;5.00;99.90
8099;DHT22;4092;47.876;9.372;2022-11-03T02:04:54;5.00;99.90
8099;DHT22;4092;47.876;9.372;2022-11-03T02:07:28;5.00;99.90
8099;DHT22;4092;47.876;9.372;2022-11-03T02:09:57;5.00;99.90
8099;DHT22;4092;47.876;9.372;2022-11-03T02:12:27;5.00;99.90
8099;DHT22;4092;47.876;9.372;2022-11-03T02:14:57;5.10;99.90
8099;DHT22;4092;47.876;9.372;2022-11-03T02:17:28;5.10;99.90
8099;DHT22;4092;47.876;9.372;2022-11-03T02:19:58;5.10;99.90
8099;DHT22;4092;47.876;9.372;2022-11-03T02:25:42;5.00;99.90
8099;DHT22;4092;47.876;9.372;2022-11-03T02:28:10;5.00;99.90
8099;DHT22;4092;47.876;9.372;2022-11-03T02:30:41;4.90;99.90
8099;DHT22;4092;47.876;9.372;2022-11-03T02:33:23;5.00;99.90
8099;DHT22;4092;47.876;9.372;2022-11-03T02:35:56;4.90;99.90
8099;DHT22;4092;47.876;9.372;2022-11-03T02:38:27;5.00;99.90
8099;DHT22;4092;47.876;9.372;2022-11-03T02:41:00;5.00;99.90
8099;DHT22;4092;47.876;9.372;2022-11-03T02:43:29;4.90;99.90
8099;DHT22;4092;47.876;9.372;2022-11-03T02:45:56;4.90;99.90
8099;DHT22;4092;47.876;9.372;2022-11-03T02:48:23;4.80;99.90
8099;DHT22;4092;47.876;9.372;2022-11-03T02:50:50;4.90;99.90
8099;DHT22;4092;47.876;9.372;2022-11-03T02:53:19;4.80;99.90
8099;DHT22;4092;47.876;9.372;2022-11-03T02:55:52;4.80;99.90
8099;DHT22;4092;47.876;9.372;2022-11-03T02:58:26;4.80;99.90
8099;DHT22;4092;47.876;9.372;2022-11-03T03:00:58;4.70;99.90
8099;DHT22;4092;47.876;9.372;2022-11-03T03:03:31;4.80;99.90
8099;DHT22;4092;47.876;9.372;2022-11-03T03:06:04;4.80;99.90
8099;DHT22;4092;47.876;9.372;2022-11-03T03:08:34;4.70;99.90
8099;DHT22;4092;47.876;9.372;2022-11-03T03:11:04;4.70;99.90
8099;DHT22;4092;47.876;9.372;2022-11-03T03:13:33;4.70;99.90
8099;DHT22;4092;47.876;9.372;2022-11-03T03:16:06;4.60;99.90
8099;DHT22;4092;47.876;9.372;2022-11-03T03:18:45;4.60;99.90
8099;DHT22;4092;47.876;9.372;2022-11-03T03:21:17;4.60;99.90
8099;DHT22;4092;47.876;9.372;2022-11-03T03:23:49;4.50;99.90
8099;DHT22;4092;47.876;9.372;2022-11-03T03:26:22;4.50;99.90
8099;DHT22;4092;47.876;9.372;2022-11-03T03:28:55;4.50;99.90
8099;DHT22;4092;47.876;9.372;2022-11-03T03:31:25;4.50;99.90
8099;DHT22;4092;47.876;9.372;2022-11-03T03:33:53;4.50;99.90
8099;DHT22;4092;47.876;9.372;2022-11-03T03:36:23;4.50;99.90
8099;DHT22;4092;47.876;9.372;2022-11-03T03:38:54;4.50;99.90
8099;DHT22;4092;47.876;9.372;2022-11-03T03:41:24;4.50;99.90
8099;DHT22;4092;47.876;9.372;2022-11-03T03:43:56;4.40;99.90
8099;DHT22;4092;47.876;9.372;2022-11-03T03:46:27;4.40;99.90
8099;DHT22;4092;47.876;9.372;2022-11-03T03:48:55;4.30;99.90
8099;DHT22;4092;47.876;9.372;2022-11-03T03:51:24;4.20;99.90
8099;DHT22;4092;47.876;9.372;2022-11-03T03:53:52;4.30;99.90
8099;DHT22;4092;47.876;9.372;2022-11-03T03:56:24;4.20;99.90
8099;DHT22;4092;47.876;9.372;2022-11-03T03:58:54;4.30;99.90
8099;DHT22;4092;47.876;9.372;2022-11-03T04:01:21;4.30;99.90
8099;DHT22;4092;47.876;9.372;2022-11-03T04:03:48;4.40;99.90
8099;DHT22;4092;47.876;9.372;2022-11-03T04:06:15;4.40;99.90
8099;DHT22;4092;47.876;9.372;2022-11-03T04:08:42;4.40;99.90
8099;DHT22;4092;47.876;9.372;2022-11-03T04:11:09;4.50;99.90
8099;DHT22;4092;47.876;9.372;2022-11-03T04:13:54;4.50;99.90
8099;DHT22;4092;47.876;9.372;2022-11-03T04:16:39;4.60;99.90
8099;DHT22;4092;47.876;9.372;2022-11-03T04:19:23;4.60;99.90
8099;DHT22;4092;47.876;9.372;2022-11-03T04:22:08;4.50;99.90
8099;DHT22;4092;47.876;9.372;2022-11-03T04:24:47;4.50;99.90
8099;DHT22;4092;47.876;9.372;2022-11-03T04:27:35;4.50;99.90
8099;DHT22;4092;47.876;9.372;2022-11-03T04:30:13;4.40;99.90
8099;DHT22;4092;47.876;9.372;2022-11-03T04:32:41;4.40;99.90
8099;DHT22;4092;47.876;9.372;2022-11-03T04:35:16;4.40;99.90
8099;DHT22;4092;47.876;9.372;2022-11-03T04:37:44;4.40;99.90
8099;DHT22;4092;47.876;9.372;2022-11-03T04:40:14;4.40;99.90
8099;DHT22;4092;47.876;9.372;2022-11-03T04:42:42;4.40;99.90
8099;DHT22;4092;47.876;9.372;2022-11-03T04:45:21;4.50;99.90
8099;DHT22;4092;47.876;9.372;2022-11-03T04:47:49;4.50;99.90
8099;DHT22;4092;47.876;9.372;2022-11-03T04:50:18;4.50;99.90
8099;DHT22;4092;47.876;9.372;2022-11-03T04:52:46;4.50;99.90
8099;DHT22;4092;47.876;9.372;2022-11-03T04:55:14;4.50;99.90
8099;DHT22;4092;47.876;9.372;2022-11-03T04:57:43;4.50;99.90
8099;DHT22;4092;47.876;9.372;2022-11-03T05:00:16;4.40;99.90
8099;DHT22;4092;47.876;9.372;2022-11-03T05:02:45;4.50;99.90
8099;DHT22;4092;47.876;9.372;2022-11-03T05:05:15;4.50;99.90
8099;DHT22;4092;47.876;9.372;2022-11-03T05:07:45;4.50;99.90
8099;DHT22;4092;47.876;9.372;2022-11-03T05:10:16;4.60;99.90
8099;DHT22;4092;47.876;9.372;2022-11-03T05:12:43;4.50;99.90
8099;DHT22;4092;47.876;9.372;2022-11-03T05:15:27;4.50;99.90
8099;DHT22;4092;47.876;9.372;2022-11-03T05:17:56;4.50;99.90
8099;DHT22;4092;47.876;9.372;2022-11-03T05:20:30;4.50;99.90
8099;DHT22;4092;47.876;9.372;2022-11-03T05:22:58;4.50;99.90
8099;DHT22;4092;47.876;9.372;2022-11-03T05:25:35;4.60;99.90
8099;DHT22;4092;47.876;9.372;2022-11-03T05:28:19;4.60;99.90
8099;DHT22;4092;47.876;9.372;2022-11-03T05:30:49;4.70;99.90
8099;DHT22;4092;47.876;9.372;2022-11-03T05:33:22;4.80;99.90
8099;DHT22;4092;47.876;9.372;2022-11-03T05:35:51;4.90;99.90
8099;DHT22;4092;47.876;9.372;2022-11-03T05:38:20;4.90;99.90
8099;DHT22;4092;47.876;9.372;2022-11-03T05:40:50;5.00;99.90
8099;DHT22;4092;47.876;9.372;2022-11-03T05:43:19;5.10;99.90
8099;DHT22;4092;47.876;9.372;2022-11-03T05:45:49;5.10;99.90
8099;DHT22;4092;47.876;9.372;2022-11-03T05:48:31;5.10;99.90
8099;DHT22;4092;47.876;9.372;2022-11-03T05:51:00;5.10;99.90
8099;DHT22;4092;47.876;9.372;2022-11-03T05:53:30;5.10;99.90
8099;DHT22;4092;47.876;9.372;2022-11-03T05:55:59;5.10;99.90
8099;DHT22;4092;47.876;9.372;2022-11-03T05:58:30;5.10;99.90
8099;DHT22;4092;47.876;9.372;2022-11-03T06:01:03;5.10;99.90
8099;DHT22;4092;47.876;9.372;2022-11-03T06:03:34;5.00;99.90
8099;DHT22;4092;47.876;9.372;2022-11-03T06:06:02;5.00;99.90
8099;DHT22;4092;47.876;9.372;2022-11-03T06:08:37;5.00;99.90
8099;DHT22;4092;47.876;9.372;2022-11-03T06:11:04;5.00;99.90
8099;DHT22;4092;47.876;9.372;2022-11-03T06:13:33;4.90;99.90
8099;DHT22;4092;47.876;9.372;2022-11-03T06:16:04;4.90;99.90
8099;DHT22;4092;47.876;9.372;2022-11-03T06:18:33;4.90;99.90
8099;DHT22;4092;47.876;9.372;2022-11-03T06:21:06;4.90;99.90
8099;DHT22;4092;47.876;9.372;2022-11-03T06:23:35;5.00;99.90
8099;DHT22;4092;47.876;9.372;2022-11-03T06:26:03;5.00;99.90
8099;DHT22;4092;47.876;9.372;2022-11-03T06:28:33;5.00;99.90
8099;DHT22;4092;47.876;9.372;2022-11-03T06:31:13;4.90;99.90
8099;DHT22;4092;47.876;9.372;2022-11-03T06:33:40;4.90;99.90
8099;DHT22;4092;47.876;9.372;2022-11-03T06:36:14;4.80;99.90
8099;DHT22;4092;47.876;9.372;2022-11-03T06:38:45;4.80;99.90
8099;DHT22;4092;47.876;9.372;2022-11-03T06:41:22;4.80;99.90
8099;DHT22;4092;47.876;9.372;2022-11-03T06:43:50;4.80;99.90
8099;DHT22;4092;47.876;9.372;2022-11-03T06:46:21;4.90;99.90
8099;DHT22;4092;47.876;9.372;2022-11-03T06:48:49;4.90;99.90
8099;DHT22;4092;47.876;9.372;2022-11-03T06:51:19;4.90;99.90
8099;DHT22;4092;47.876;9.372;2022-11-03T06:53:47;4.80;99.90
8099;DHT22;4092;47.876;9.372;2022-11-03T06:56:19;4.80;99.90
8099;DHT22;4092;47.876;9.372;2022-11-03T06:58:47;4.90;99.90
8099;DHT22;4092;47.876;9.372;2022-11-03T07:01:20;4.90;99.90
8099;DHT22;4092;47.876;9.372;2022-11-03T07:03:48;4.90;99.90
8099;DHT22;4092;47.876;9.372;2022-11-03T07:06:19;4.90;99.90
8099;DHT22;4092;47.876;9.372;2022-11-03T07:08:50;5.00;99.90
8099;DHT22;4092;47.876;9.372;2022-11-03T07:11:20;5.10;99.90
8099;DHT22;4092;47.876;9.372;2022-11-03T07:13:50;5.10;99.90
8099;DHT22;4092;47.876;9.372;2022-11-03T07:16:25;5.30;99.90
8099;DHT22;4092;47.876;9.372;2022-11-03T07:18:53;5.40;99.90
8099;DHT22;4092;47.876;9.372;2022-11-03T07:21:33;5.60;99.90
8099;DHT22;4092;47.876;9.372;2022-11-03T07:24:03;5.60;99.90
8099;DHT22;4092;47.876;9.372;2022-11-03T07:26:36;5.60;99.90
8099;DHT22;4092;47.876;9.372;2022-11-03T07:29:03;5.60;99.90
8099;DHT22;4092;47.876;9.372;2022-11-03T07:31:32;5.60;99.90
8099;DHT22;4092;47.876;9.372;2022-11-03T07:33:59;5.70;99.90
8099;DHT22;4092;47.876;9.372;2022-11-03T07:36:28;5.70;99.90
8099;DHT22;4092;47.876;9.372;2022-11-03T07:38:59;5.70;99.90
8099;DHT22;4092;47.876;9.372;2022-11-03T07:41:30;5.70;99.90
8099;DHT22;4092;47.876;9.372;2022-11-03T07:43:59;5.80;99.90
8099;DHT22;4092;47.876;9.372;2022-11-03T07:46:26;5.80;99.90
8099;DHT22;4092;47.876;9.372;2022-11-03T07:48:56;5.90;99.90
8099;DHT22;4092;47.876;9.372;2022-11-03T07:51:26;5.90;99.90
8099;DHT22;4092;47.876;9.372;2022-11-03T07:53:56;6.00;99.90
8099;DHT22;4092;47.876;9.372;2022-11-03T07:56:25;6.10;99.90
8099;DHT22;4092;47.876;9.372;2022-11-03T07:58:57;6.10;99.90
8099;DHT22;4092;47.876;9.372;2022-11-03T08:01:27;6.30;99.90
8099;DHT22;4092;47.876;9.372;2022-11-03T08:03:59;6.30;99.90
8099;DHT22;4092;47.876;9.372;2022-11-03T08:06:28;6.40;99.90
8099;DHT22;4092;47.876;9.372;2022-11-03T08:08:55;6.50;99.90
8099;DHT22;4092;47.876;9.372;2022-11-03T08:11:22;6.60;99.90
8099;DHT22;4092;47.876;9.372;2022-11-03T08:13:50;6.70;99.90
8099;DHT22;4092;47.876;9.372;2022-11-03T08:16:17;6.70;99.90
8099;DHT22;4092;47.876;9.372;2022-11-03T08:18:44;6.70;99.90
8099;DHT22;4092;47.876;9.372;2022-11-03T08:21:13;6.90;99.90
8099;DHT22;4092;47.876;9.372;2022-11-03T08:23:42;7.10;99.90
8099;DHT22;4092;47.876;9.372;2022-11-03T08:26:09;7.20;99.90
8099;DHT22;4092;47.876;9.372;2022-11-03T08:28:36;7.30;99.90
8099;DHT22;4092;47.876;9.372;2022-11-03T08:31:03;7.30;99.90
8099;DHT22;4092;47.876;9.372;2022-11-03T08:33:30;7.40;99.90
8099;DHT22;4092;47.876;9.372;2022-11-03T08:35:58;7.40;99.90
8099;DHT22;4092;47.876;9.372;2022-11-03T08:38:27;7.50;99.90
8099;DHT22;4092;47.876;9.372;2022-11-03T08:40:54;7.50;99.90
8099;DHT22;4092;47.876;9.372;2022-11-03T08:43:23;7.60;99.90
8099;DHT22;4092;47.876;9.372;2022-11-03T08:45:50;7.70;99.90
8099;DHT22;4092;47.876;9.372;2022-11-03T08:48:18;7.80;99.90
8099;DHT22;4092;47.876;9.372;2022-11-03T08:50:45;7.80;99.90
8099;DHT22;4092;47.876;9.372;2022-11-03T08:53:12;7.90;99.90
8099;DHT22;4092;47.876;9.372;2022-11-03T08:55:41;7.90;99.90
8099;DHT22;4092;47.876;9.372;2022-11-03T08:58:08;8.00;99.90
8099;DHT22;4092;47.876;9.372;2022-11-03T09:00:35;8.20;99.90
8099;DHT22;4092;47.876;9.372;2022-11-03T09:03:02;8.30;99.90
8099;DHT22;4092;47.876;9.372;2022-11-03T09:05:29;8.40;99.90
8099;DHT22;4092;47.876;9.372;2022-11-03T09:07:56;8.50;99.90
8099;DHT22;4092;47.876;9.372;2022-11-03T09:10:24;8.40;99.90
8099;DHT22;4092;47.876;9.372;2022-11-03T09:12:53;8.50;99.90
8099;DHT22;4092;47.876;9.372;2022-11-03T09:15:20;8.60;99.90
8099;DHT22;4092;47.876;9.372;2022-11-03T09:17:47;8.80;99.90
8099;DHT22;4092;47.876;9.372;2022-11-03T09:20:14;8.90;99.90
8099;DHT22;4092;47.876;9.372;2022-11-03T09:22:41;9.10;99.90
8099;DHT22;4092;47.876;9.372;2022-11-03T09:25:09;9.10;99.90
8099;DHT22;4092;47.876;9.372;2022-11-03T09:27:36;9.00;99.90
8099;DHT22;4092;47.876;9.372;2022-11-03T09:30:06;9.00;99.90
8099;DHT22;4092;47.876;9.372;2022-11-03T09:32:33;9.00;99.90
8099;DHT22;4092;47.876;9.372;2022-11-03T09:35:00;9.20;99.90
8099;DHT22;4092;47.876;9.372;2022-11-03T09:37:27;9.40;99.90
8099;DHT22;4092;47.876;9.372;2022-11-03T09:39:54;9.60;99.90
8099;DHT22;4092;47.876;9.372;2022-11-03T09:42:23;9.80;99.90
8099;DHT22;4092;47.876;9.372;2022-11-03T09:44:51;10.00;99.90
8099;DHT22;4092;47.876;9.372;2022-11-03T09:47:23;10.20;99.90
8099;DHT22;4092;47.876;9.372;2022-11-03T09:49:50;10.40;99.90
8099;DHT22;4092;47.876;9.372;2022-11-03T09:52:20;10.50;99.90
8099;DHT22;4092;47.876;9.372;2022-11-03T09:54:49;10.60;99.90
8099;DHT22;4092;47.876;9.372;2022-11-03T09:57:17;10.60;99.90
8099;DHT22;4092;47.876;9.372;2022-11-03T09:59:47;10.60;99.90
8099;DHT22;4092;47.876;9.372;2022-11-03T10:02:21;10.60;99.90
8099;DHT22;4092;47.876;9.372;2022-11-03T10:04:51;10.80;99.90
8099;DHT22;4092;47.876;9.372;2022-11-03T10:07:19;11.00;99.90
8099;DHT22;4092;47.876;9.372;2022-11-03T10:09:48;11.30;99.90
8099;DHT22;4092;47.876;9.372;2022-11-03T10:12:16;11.30;99.90
8099;DHT22;4092;47.876;9.372;2022-11-03T10:14:44;11.30;99.90
8099;DHT22;4092;47.876;9.372;2022-11-03T10:17:15;11.30;99.90
8099;DHT22;4092;47.876;9.372;2022-11-03T10:19:47;11.30;99.90
8099;DHT22;4092;47.876;9.372;2022-11-03T10:22:15;11.40;99.90
8099;DHT22;4092;47.876;9.372;2022-11-03T10:24:42;11.50;99.90
8099;DHT22;4092;47.876;9.372;2022-11-03T10:27:22;11.70;99.90
8099;DHT22;4092;47.876;9.372;2022-11-03T10:30:05;11.80;99.90
8099;DHT22;4092;47.876;9.372;2022-11-03T10:32:33;11.90;99.90
8099;DHT22;4092;47.876;9.372;2022-11-03T10:35:03;12.00;99.90
8099;DHT22;4092;47.876;9.372;2022-11-03T10:37:49;11.90;99.90
8099;DHT22;4092;47.876;9.372;2022-11-03T10:40:35;12.00;99.90
8099;DHT22;4092;47.876;9.372;2022-11-03T10:43:02;11.90;99.90
8099;DHT22;4092;47.876;9.372;2022-11-03T10:45:29;11.70;99.90
8099;DHT22;4092;47.876;9.372;2022-11-03T10:47:59;11.60;99.90
8099;DHT22;4092;47.876;9.372;2022-11-03T10:50:28;11.50;99.90
8099;DHT22;4092;47.876;9.372;2022-11-03T10:52:55;11.50;99.90
8099;DHT22;4092;47.876;9.372;2022-11-03T10:55:25;11.50;99.90
8099;DHT22;4092;47.876;9.372;2022-11-03T10:57:53;11.50;99.90
8099;DHT22;4092;47.876;9.372;2022-11-03T11:00:21;11.50;99.90
8099;DHT22;4092;47.876;9.372;2022-11-03T11:02:49;11.60;99.90
8099;DHT22;4092;47.876;9.372;2022-11-03T11:05:22;11.40;99.90
8099;DHT22;4092;47.876;9.372;2022-11-03T11:07:52;11.30;99.90
8099;DHT22;4092;47.876;9.372;2022-11-03T11:10:22;11.20;99.90
8099;DHT22;4092;47.876;9.372;2022-11-03T11:13:23;11.20;99.90
8099;DHT22;4092;47.876;9.372;2022-11-03T11:15:51;11.30;99.90
8099;DHT22;4092;47.876;9.372;2022-11-03T11:22:11;11.40;99.90
8099;DHT22;4092;47.876;9.372;2022-11-03T11:25:02;11.20;99.90
8099;DHT22;4092;47.876;9.372;2022-11-03T11:30:57;11.10;99.90
8099;DHT22;4092;47.876;9.372;2022-11-03T11:33:25;10.90;99.90
8099;DHT22;4092;47.876;9.372;2022-11-03T11:38:56;10.80;99.90
8099;DHT22;4092;47.876;9.372;2022-11-03T11:44:51;10.50;99.90
8099;DHT22;4092;47.876;9.372;2022-11-03T11:47:42;10.50;99.90
8099;DHT22;4092;47.876;9.372;2022-11-03T11:50:25;10.50;99.90
8099;DHT22;4092;47.876;9.372;2022-11-03T11:55:47;10.50;99.90
8099;DHT22;4092;47.876;9.372;2022-11-03T11:58:25;10.50;99.90
8099;DHT22;4092;47.876;9.372;2022-11-03T12:00:58;10.60;99.90
8099;DHT22;4092;47.876;9.372;2022-11-03T12:03:35;10.60;99.90
8099;DHT22;4092;47.876;9.372;2022-11-03T12:06:04;10.60;99.90
8099;DHT22;4092;47.876;9.372;2022-11-03T12:08:32;10.60;99.90
8099;DHT22;4092;47.876;9.372;2022-11-03T12:11:01;10.70;99.90
8099;DHT22;4092;47.876;9.372;2022-11-03T12:13:49;10.70;99.90
8099;DHT22;4092;47.876;9.372;2022-11-03T12:16:31;10.60;99.90
8099;DHT22;4092;47.876;9.372;2022-11-03T12:19:37;10.60;99.90
8099;DHT22;4092;47.876;9.372;2022-11-03T12:22:06;10.60;99.90
8099;DHT22;4092;47.876;9.372;2022-11-03T12:24:47;10.70;99.90
8099;DHT22;4092;47.876;9.372;2022-11-03T12:27:40;10.70;99.90
8099;DHT22;4092;47.876;9.372;2022-11-03T12:30:17;10.80;99.90
8099;DHT22;4092;47.876;9.372;2022-11-03T12:32:46;10.90;99.90
8099;DHT22;4092;47.876;9.372;2022-11-03T12:35:14;11.10;99.90
8099;DHT22;4092;47.876;9.372;2022-11-03T12:37:41;11.30;99.90
8099;DHT22;4092;47.876;9.372;2022-11-03T12:40:11;11.40;99.90
8099;DHT22;4092;47.876;9.372;2022-11-03T12:42:38;11.40;99.90
8099;DHT22;4092;47.876;9.372;2022-11-03T12:45:06;11.40;99.90
8099;DHT22;4092;47.876;9.372;2022-11-03T12:47:33;11.40;99.90
8099;DHT22;4092;47.876;9.372;2022-11-03T12:50:02;11.40;99.90
8099;DHT22;4092;47.876;9.372;2022-11-03T12:52:30;11.50;99.90
8099;DHT22;4092;47.876;9.372;2022-11-03T12:54:56;11.50;99.90
8099;DHT22;4092;47.876;9.372;2022-11-03T12:57:23;11.60;99.90
8099;DHT22;4092;47.876;9.372;2022-11-03T12:59:50;11.50;99.90
8099;DHT22;4092;47.876;9.372;2022-11-03T13:02:17;11.40;99.90
8099;DHT22;4092;47.876;9.372;2022-11-03T13:04:44;11.50;99.90
8099;DHT22;4092;47.876;9.372;2022-11-03T13:07:13;11.50;99.90
8099;DHT22;4092;47.876;9.372;2022-11-03T13:09:40;11.40;99.90
8099;DHT22;4092;47.876;9.372;2022-11-03T13:12:11;11.50;99.90
8099;DHT22;4092;47.876;9.372;2022-11-03T13:14:55;11.50;99.90
8099;DHT22;4092;47.876;9.372;2022-11-03T13:17:22;11.50;99.90
8099;DHT22;4092;47.876;9.372;2022-11-03T13:19:49;11.60;99.90
8099;DHT22;4092;47.876;9.372;2022-11-03T13:22:18;11.50;99.90
8099;DHT22;4092;47.876;9.372;2022-11-03T13:24:45;11.60;99.90
8099;DHT22;4092;47.876;9.372;2022-11-03T13:27:13;11.60;99.90
8099;DHT22;4092;47.876;9.372;2022-11-03T13:29:40;11.60;99.90
8099;DHT22;4092;47.876;9.372;2022-11-03T13:32:07;11.50;99.90
8099;DHT22;4092;47.876;9.372;2022-11-03T13:34:34;11.50;99.90
8099;DHT22;4092;47.876;9.372;2022-11-03T13:37:01;11.40;99.90
8099;DHT22;4092;47.876;9.372;2022-11-03T13:39:30;11.30;99.90
8099;DHT22;4092;47.876;9.372;2022-11-03T13:41:57;11.10;99.90
8099;DHT22;4092;47.876;9.372;2022-11-03T13:44:24;10.90;99.90
8099;DHT22;4092;47.876;9.372;2022-11-03T13:46:51;10.80;99.90
8099;DHT22;4092;47.876;9.372;2022-11-03T13:49:19;10.60;99.90
8099;DHT22;4092;47.876;9.372;2022-11-03T13:51:47;10.60;99.90
8099;DHT22;4092;47.876;9.372;2022-11-03T13:54:14;10.50;99.90
8099;DHT22;4092;47.876;9.372;2022-11-03T13:56:42;10.40;99.90
8099;DHT22;4092;47.876;9.372;2022-11-03T13:59:09;10.50;99.90
8099;DHT22;4092;47.876;9.372;2022-11-03T14:01:36;10.40;99.90
8099;DHT22;4092;47.876;9.372;2022-11-03T14:04:03;10.30;99.90
8099;DHT22;4092;47.876;9.372;2022-11-03T14:06:31;10.30;99.90
8099;DHT22;4092;47.876;9.372;2022-11-03T14:08:58;10.30;99.90
8099;DHT22;4092;47.876;9.372;2022-11-03T14:11:25;10.30;99.90
8099;DHT22;4092;47.876;9.372;2022-11-03T14:14:11;10.20;99.90
8099;DHT22;4092;47.876;9.372;2022-11-03T14:16:38;10.10;99.90
8099;DHT22;4092;47.876;9.372;2022-11-03T14:19:05;10.10;99.90
8099;DHT22;4092;47.876;9.372;2022-11-03T14:21:31;10.00;99.90
8099;DHT22;4092;47.876;9.372;2022-11-03T14:24:02;10.00;99.90
8099;DHT22;4092;47.876;9.372;2022-11-03T14:26:29;10.00;99.90
8099;DHT22;4092;47.876;9.372;2022-11-03T14:28:56;9.90;99.90
8099;DHT22;4092;47.876;9.372;2022-11-03T14:31:24;10.00;99.90
8099;DHT22;4092;47.876;9.372;2022-11-03T14:33:52;10.00;99.90
8099;DHT22;4092;47.876;9.372;2022-11-03T14:36:18;10.00;99.90
8099;DHT22;4092;47.876;9.372;2022-11-03T14:38:45;9.90;99.90
8099;DHT22;4092;47.876;9.372;2022-11-03T14:41:12;9.90;99.90
8099;DHT22;4092;47.876;9.372;2022-11-03T14:43:57;9.90;99.90
8099;DHT22;4092;47.876;9.372;2022-11-03T14:46:26;9.90;99.90
8099;DHT22;4092;47.876;9.372;2022-11-03T14:48:53;9.90;99.90
8099;DHT22;4092;47.876;9.372;2022-11-03T14:51:20;10.00;99.90
8099;DHT22;4092;47.876;9.372;2022-11-03T14:53:47;9.90;99.90
8099;DHT22;4092;47.876;9.372;2022-11-03T14:56:14;9.90;99.90
8099;DHT22;4092;47.876;9.372;2022-11-03T14:58:41;9.90;99.90
8099;DHT22;4092;47.876;9.372;2022-11-03T15:01:08;9.90;99.90
8099;DHT22;4092;47.876;9.372;2022-11-03T15:03:36;9.90;99.90
8099;DHT22;4092;47.876;9.372;2022-11-03T15:06:04;9.90;99.90
8099;DHT22;4092;47.876;9.372;2022-11-03T15:08:31;9.80;99.90
8099;DHT22;4092;47.876;9.372;2022-11-03T15:10:58;9.80;99.90
8099;DHT22;4092;47.876;9.372;2022-11-03T15:13:25;9.60;99.90
8099;DHT22;4092;47.876;9.372;2022-11-03T15:15:52;9.50;99.90
8099;DHT22;4092;47.876;9.372;2022-11-03T15:18:19;9.50;99.90
8099;DHT22;4092;47.876;9.372;2022-11-03T15:20:47;9.50;99.90
8099;DHT22;4092;47.876;9.372;2022-11-03T15:23:14;9.40;99.90
8099;DHT22;4092;47.876;9.372;2022-11-03T15:25:42;9.40;99.90
8099;DHT22;4092;47.876;9.372;2022-11-03T15:28:09;9.30;99.90
8099;DHT22;4092;47.876;9.372;2022-11-03T15:30:36;9.20;99.90
8099;DHT22;4092;47.876;9.372;2022-11-03T15:33:04;9.20;99.90
8099;DHT22;4092;47.876;9.372;2022-11-03T15:35:31;9.10;99.90
8099;DHT22;4092;47.876;9.372;2022-11-03T15:37:59;9.10;99.90
8099;DHT22;4092;47.876;9.372;2022-11-03T15:40:26;9.10;99.90
8099;DHT22;4092;47.876;9.372;2022-11-03T15:42:53;9.10;99.90
8099;DHT22;4092;47.876;9.372;2022-11-03T15:45:20;9.10;99.90
8099;DHT22;4092;47.876;9.372;2022-11-03T15:47:47;9.10;99.90
8099;DHT22;4092;47.876;9.372;2022-11-03T15:50:14;9.10;99.90
8099;DHT22;4092;47.876;9.372;2022-11-03T15:52:41;9.10;99.90
8099;DHT22;4092;47.876;9.372;2022-11-03T15:55:10;9.20;99.90
8099;DHT22;4092;47.876;9.372;2022-11-03T15:57:37;9.20;99.90
8099;DHT22;4092;47.876;9.372;2022-11-03T16:00:04;9.30;99.90
8099;DHT22;4092;47.876;9.372;2022-11-03T16:02:32;9.30;99.90
8099;DHT22;4092;47.876;9.372;2022-11-03T16:04:59;9.30;99.90
8099;DHT22;4092;47.876;9.372;2022-11-03T16:07:26;9.30;99.90
8099;DHT22;4092;47.876;9.372;2022-11-03T16:09:54;9.30;99.90
8099;DHT22;4092;47.876;9.372;2022-11-03T16:12:22;9.30;99.90
8099;DHT22;4092;47.876;9.372;2022-11-03T16:14:49;9.30;99.90
8099;DHT22;4092;47.876;9.372;2022-11-03T16:17:17;9.30;99.90
8099;DHT22;4092;47.876;9.372;2022-11-03T16:19:44;9.20;99.90
8099;DHT22;4092;47.876;9.372;2022-11-03T16:22:11;9.30;99.90
8099;DHT22;4092;47.876;9.372;2022-11-03T16:24:38;9.30;99.90
8099;DHT22;4092;47.876;9.372;2022-11-03T16:27:06;9.30;99.90
8099;DHT22;4092;47.876;9.372;2022-11-03T16:29:35;9.30;99.90
8099;DHT22;4092;47.876;9.372;2022-11-03T16:32:02;9.30;99.90
8099;DHT22;4092;47.876;9.372;2022-11-03T16:34:29;9.30;99.90
8099;DHT22;4092;47.876;9.372;2022-11-03T16:36:56;9.30;99.90
8099;DHT22;4092;47.876;9.372;2022-11-03T16:39:25;9.30;99.90
8099;DHT22;4092;47.876;9.372;2022-11-03T16:41:52;9.40;99.90
8099;DHT22;4092;47.876;9.372;2022-11-03T16:44:19;9.30;99.90
8099;DHT22;4092;47.876;9.372;2022-11-03T16:46:48;9.30;99.90
8099;DHT22;4092;47.876;9.372;2022-11-03T16:49:15;9.30;99.90
8099;DHT22;4092;47.876;9.372;2022-11-03T16:51:42;9.30;99.90